sensor_id;sensor_type;location;lat;lon;timestamp;P1;durP1;ratioP1;P2;durP2;ratioP2
77581;SDS011;66726;52.388;9.986;2023-04-29T00:00:30;27.27;;;22.03;;
77581;SDS011;66726;52.388;9.986;2023-04-29T00:03:02;26.83;;;22.03;;
77581;SDS011;66726;52.388;9.986;2023-04-29T00:05:34;29.70;;;23.17;;
77581;SDS011;66726;52.388;9.986;2023-04-29T00:08:06;30.57;;;23.97;;
77581;SDS011;66726;52.388;9.986;2023-04-29T00:10:39;33.30;;;26.63;;
77581;SDS011;66726;52.388;9.986;2023-04-29T00:13:11;34.83;;;25.43;;
77581;SDS011;66726;52.388;9.986;2023-04-29T00:15:43;30.87;;;23.77;;
77581;SDS011;66726;52.388;9.986;2023-04-29T00:18:16;30.70;;;25.23;;
77581;SDS011;66726;52.388;9.986;2023-04-29T00:20:47;34.80;;;26.93;;
77581;SDS011;66726;52.388;9.986;2023-04-29T00:23:19;38.07;;;27.27;;
77581;SDS011;66726;52.388;9.986;2023-04-29T00:25:53;36.70;;;28.10;;
77581;SDS011;66726;52.388;9.986;2023-04-29T00:28:25;38.60;;;29.67;;
77581;SDS011;66726;52.388;9.986;2023-04-29T00:30:56;40.10;;;29.50;;
77581;SDS011;66726;52.388;9.986;2023-04-29T00:33:29;39.17;;;29.27;;
77581;SDS011;66726;52.388;9.986;2023-04-29T00:36:00;35.80;;;26.87;;
77581;SDS011;66726;52.388;9.986;2023-04-29T00:38:32;41.63;;;29.53;;
77581;SDS011;66726;52.388;9.986;2023-04-29T00:41:05;38.73;;;29.27;;
77581;SDS011;66726;52.388;9.986;2023-04-29T00:43:38;43.17;;;30.57;;
77581;SDS011;66726;52.388;9.986;2023-04-29T00:46:10;40.90;;;29.47;;
77581;SDS011;66726;52.388;9.986;2023-04-29T00:48:41;44.90;;;31.20;;
77581;SDS011;66726;52.388;9.986;2023-04-29T00:51:13;49.83;;;32.93;;
77581;SDS011;66726;52.388;9.986;2023-04-29T00:53:47;48.07;;;33.10;;
77581;SDS011;66726;52.388;9.986;2023-04-29T00:56:20;48.70;;;34.70;;
77581;SDS011;66726;52.388;9.986;2023-04-29T00:58:52;55.30;;;37.30;;
77581;SDS011;66726;52.388;9.986;2023-04-29T01:01:24;62.10;;;41.13;;
77581;SDS011;66726;52.388;9.986;2023-04-29T01:03:56;64.17;;;41.37;;
77581;SDS011;66726;52.388;9.986;2023-04-29T01:06:30;57.33;;;39.03;;
77581;SDS011;66726;52.388;9.986;2023-04-29T01:09:17;56.27;;;38.63;;
77581;SDS011;66726;52.388;9.986;2023-04-29T01:12:10;56.77;;;37.03;;
77581;SDS011;66726;52.388;9.986;2023-04-29T01:14:48;59.87;;;38.70;;
77581;SDS011;66726;52.388;9.986;2023-04-29T01:17:33;63.13;;;38.57;;
77581;SDS011;66726;52.388;9.986;2023-04-29T01:20:10;55.80;;;36.53;;
77581;SDS011;66726;52.388;9.986;2023-04-29T01:22:43;56.40;;;36.57;;
77581;SDS011;66726;52.388;9.986;2023-04-29T01:25:17;57.50;;;36.87;;
77581;SDS011;66726;52.388;9.986;2023-04-29T01:27:51;54.47;;;34.13;;
77581;SDS011;66726;52.388;9.986;2023-04-29T01:30:44;49.73;;;32.03;;
77581;SDS011;66726;52.388;9.986;2023-04-29T01:33:28;53.50;;;33.77;;
77581;SDS011;66726;52.388;9.986;2023-04-29T01:36:15;57.13;;;32.90;;
77581;SDS011;66726;52.388;9.986;2023-04-29T01:39:02;53.97;;;33.90;;
77581;SDS011;66726;52.388;9.986;2023-04-29T01:41:44;54.90;;;33.77;;
77581;SDS011;66726;52.388;9.986;2023-04-29T01:44:32;48.47;;;32.17;;
77581;SDS011;66726;52.388;9.986;2023-04-29T01:47:07;46.93;;;30.87;;
77581;SDS011;66726;52.388;9.986;2023-04-29T01:49:42;45.27;;;29.47;;
77581;SDS011;66726;52.388;9.986;2023-04-29T01:52:15;49.10;;;31.10;;
77581;SDS011;66726;52.388;9.986;2023-04-29T01:54:48;47.53;;;31.73;;
77581;SDS011;66726;52.388;9.986;2023-04-29T01:57:21;50.80;;;31.47;;
77581;SDS011;66726;52.388;9.986;2023-04-29T01:59:53;43.57;;;29.53;;
77581;SDS011;66726;52.388;9.986;2023-04-29T02:02:25;43.47;;;28.53;;
77581;SDS011;66726;52.388;9.986;2023-04-29T02:04:57;45.27;;;29.83;;
77581;SDS011;66726;52.388;9.986;2023-04-29T02:07:28;41.57;;;28.93;;
77581;SDS011;66726;52.388;9.986;2023-04-29T02:10:00;45.50;;;30.73;;
77581;SDS011;66726;52.388;9.986;2023-04-29T02:12:34;47.40;;;30.27;;
77581;SDS011;66726;52.388;9.986;2023-04-29T02:15:07;46.63;;;30.43;;
77581;SDS011;66726;52.388;9.986;2023-04-29T02:17:40;44.03;;;29.73;;
77581;SDS011;66726;52.388;9.986;2023-04-29T02:20:12;46.53;;;31.10;;
77581;SDS011;66726;52.388;9.986;2023-04-29T02:22:44;45.13;;;30.23;;
77581;SDS011;66726;52.388;9.986;2023-04-29T02:25:16;47.73;;;29.77;;
77581;SDS011;66726;52.388;9.986;2023-04-29T02:27:49;41.67;;;28.93;;
77581;SDS011;66726;52.388;9.986;2023-04-29T02:30:23;38.33;;;28.50;;
77581;SDS011;66726;52.388;9.986;2023-04-29T02:32:55;39.40;;;30.57;;
77581;SDS011;66726;52.388;9.986;2023-04-29T02:35:27;45.70;;;32.57;;
77581;SDS011;66726;52.388;9.986;2023-04-29T02:38:00;39.13;;;30.03;;
77581;SDS011;66726;52.388;9.986;2023-04-29T02:40:32;42.13;;;31.97;;
77581;SDS011;66726;52.388;9.986;2023-04-29T02:43:11;42.50;;;29.70;;
77581;SDS011;66726;52.388;9.986;2023-04-29T02:45:43;42.70;;;31.17;;
77581;SDS011;66726;52.388;9.986;2023-04-29T02:48:15;37.77;;;28.87;;
77581;SDS011;66726;52.388;9.986;2023-04-29T02:50:47;38.27;;;29.50;;
77581;SDS011;66726;52.388;9.986;2023-04-29T02:53:19;40.20;;;29.43;;
77581;SDS011;66726;52.388;9.986;2023-04-29T02:55:50;38.37;;;28.77;;
77581;SDS011;66726;52.388;9.986;2023-04-29T02:58:24;36.70;;;28.87;;
77581;SDS011;66726;52.388;9.986;2023-04-29T03:00:57;35.40;;;26.23;;
77581;SDS011;66726;52.388;9.986;2023-04-29T03:03:30;35.33;;;27.30;;
77581;SDS011;66726;52.388;9.986;2023-04-29T03:06:02;33.13;;;26.53;;
77581;SDS011;66726;52.388;9.986;2023-04-29T03:08:33;33.00;;;25.83;;
77581;SDS011;66726;52.388;9.986;2023-04-29T03:11:05;28.57;;;23.67;;
77581;SDS011;66726;52.388;9.986;2023-04-29T03:13:38;27.37;;;23.33;;
77581;SDS011;66726;52.388;9.986;2023-04-29T03:16:11;25.80;;;22.27;;
77581;SDS011;66726;52.388;9.986;2023-04-29T03:18:43;24.97;;;21.77;;
77581;SDS011;66726;52.388;9.986;2023-04-29T03:21:15;24.63;;;21.10;;
77581;SDS011;66726;52.388;9.986;2023-04-29T03:23:47;25.40;;;22.70;;
77581;SDS011;66726;52.388;9.986;2023-04-29T03:26:18;25.50;;;22.37;;
77581;SDS011;66726;52.388;9.986;2023-04-29T03:28:52;25.70;;;22.87;;
77581;SDS011;66726;52.388;9.986;2023-04-29T03:31:24;25.50;;;22.80;;
77581;SDS011;66726;52.388;9.986;2023-04-29T03:33:57;25.97;;;23.27;;
77581;SDS011;66726;52.388;9.986;2023-04-29T03:36:31;26.20;;;23.43;;
77581;SDS011;66726;52.388;9.986;2023-04-29T03:39:02;26.03;;;23.43;;
77581;SDS011;66726;52.388;9.986;2023-04-29T03:41:34;26.20;;;23.50;;
77581;SDS011;66726;52.388;9.986;2023-04-29T03:44:08;26.47;;;23.67;;
77581;SDS011;66726;52.388;9.986;2023-04-29T03:46:40;26.77;;;23.87;;
77581;SDS011;66726;52.388;9.986;2023-04-29T03:49:12;27.83;;;24.83;;
77581;SDS011;66726;52.388;9.986;2023-04-29T03:51:43;27.73;;;24.83;;
77581;SDS011;66726;52.388;9.986;2023-04-29T03:54:15;30.13;;;26.93;;
77581;SDS011;66726;52.388;9.986;2023-04-29T03:56:47;30.37;;;27.17;;
77581;SDS011;66726;52.388;9.986;2023-04-29T03:59:23;31.53;;;28.03;;
77581;SDS011;66726;52.388;9.986;2023-04-29T04:01:54;31.33;;;27.63;;
77581;SDS011;66726;52.388;9.986;2023-04-29T04:04:26;31.57;;;28.20;;
77581;SDS011;66726;52.388;9.986;2023-04-29T04:06:58;33.60;;;28.60;;
77581;SDS011;66726;52.388;9.986;2023-04-29T04:09:31;33.13;;;29.57;;
77581;SDS011;66726;52.388;9.986;2023-04-29T04:12:03;32.30;;;28.43;;
77581;SDS011;66726;52.388;9.986;2023-04-29T04:14:37;36.13;;;31.40;;
77581;SDS011;66726;52.388;9.986;2023-04-29T04:17:09;38.33;;;31.47;;
77581;SDS011;66726;52.388;9.986;2023-04-29T04:19:41;36.40;;;30.83;;
77581;SDS011;66726;52.388;9.986;2023-04-29T04:22:13;38.47;;;32.20;;
77581;SDS011;66726;52.388;9.986;2023-04-29T04:24:44;37.27;;;31.37;;
77581;SDS011;66726;52.388;9.986;2023-04-29T04:27:18;37.47;;;31.80;;
77581;SDS011;66726;52.388;9.986;2023-04-29T04:29:53;37.83;;;30.57;;
77581;SDS011;66726;52.388;9.986;2023-04-29T04:32:25;41.20;;;34.20;;
77581;SDS011;66726;52.388;9.986;2023-04-29T04:34:59;44.57;;;34.67;;
77581;SDS011;66726;52.388;9.986;2023-04-29T04:37:31;43.47;;;34.63;;
77581;SDS011;66726;52.388;9.986;2023-04-29T04:40:03;46.57;;;35.60;;
77581;SDS011;66726;52.388;9.986;2023-04-29T04:42:37;47.00;;;36.67;;
77581;SDS011;66726;52.388;9.986;2023-04-29T04:45:10;46.80;;;35.87;;
77581;SDS011;66726;52.388;9.986;2023-04-29T04:47:42;53.13;;;38.47;;
77581;SDS011;66726;52.388;9.986;2023-04-29T04:50:14;46.87;;;37.20;;
77581;SDS011;66726;52.388;9.986;2023-04-29T04:52:46;53.70;;;40.00;;
77581;SDS011;66726;52.388;9.986;2023-04-29T04:55:18;53.27;;;39.93;;
77581;SDS011;66726;52.388;9.986;2023-04-29T04:57:49;56.83;;;41.13;;
77581;SDS011;66726;52.388;9.986;2023-04-29T05:00:23;53.13;;;41.33;;
77581;SDS011;66726;52.388;9.986;2023-04-29T05:02:54;55.43;;;42.07;;
77581;SDS011;66726;52.388;9.986;2023-04-29T05:05:29;57.47;;;41.40;;
77581;SDS011;66726;52.388;9.986;2023-04-29T05:08:03;57.77;;;43.80;;
77581;SDS011;66726;52.388;9.986;2023-04-29T05:10:35;57.07;;;43.47;;
77581;SDS011;66726;52.388;9.986;2023-04-29T05:13:09;59.13;;;45.23;;
77581;SDS011;66726;52.388;9.986;2023-04-29T05:15:42;54.50;;;42.23;;
77581;SDS011;66726;52.388;9.986;2023-04-29T05:18:14;56.37;;;42.50;;
77581;SDS011;66726;52.388;9.986;2023-04-29T05:20:46;53.50;;;40.93;;
77581;SDS011;66726;52.388;9.986;2023-04-29T05:23:18;52.93;;;41.07;;
77581;SDS011;66726;52.388;9.986;2023-04-29T05:25:49;51.43;;;39.97;;
77581;SDS011;66726;52.388;9.986;2023-04-29T05:28:21;50.00;;;38.37;;
77581;SDS011;66726;52.388;9.986;2023-04-29T05:30:55;48.63;;;37.97;;
77581;SDS011;66726;52.388;9.986;2023-04-29T05:33:27;48.53;;;39.90;;
77581;SDS011;66726;52.388;9.986;2023-04-29T05:35:59;50.00;;;39.87;;
77581;SDS011;66726;52.388;9.986;2023-04-29T05:38:31;51.20;;;39.60;;
77581;SDS011;66726;52.388;9.986;2023-04-29T05:41:03;54.43;;;40.80;;
77581;SDS011;66726;52.388;9.986;2023-04-29T05:43:35;57.47;;;42.60;;
77581;SDS011;66726;52.388;9.986;2023-04-29T05:46:08;56.23;;;42.40;;
77581;SDS011;66726;52.388;9.986;2023-04-29T05:48:40;57.90;;;41.73;;
77581;SDS011;66726;52.388;9.986;2023-04-29T05:51:12;56.63;;;40.40;;
77581;SDS011;66726;52.388;9.986;2023-04-29T05:53:43;49.90;;;36.43;;
77581;SDS011;66726;52.388;9.986;2023-04-29T05:56:15;40.73;;;32.33;;
77581;SDS011;66726;52.388;9.986;2023-04-29T05:58:47;36.73;;;29.43;;
77581;SDS011;66726;52.388;9.986;2023-04-29T06:01:20;36.57;;;28.83;;
77581;SDS011;66726;52.388;9.986;2023-04-29T06:03:52;39.87;;;31.07;;
77581;SDS011;66726;52.388;9.986;2023-04-29T06:06:24;36.33;;;26.93;;
77581;SDS011;66726;52.388;9.986;2023-04-29T06:08:58;32.07;;;24.93;;
77581;SDS011;66726;52.388;9.986;2023-04-29T06:11:41;32.10;;;26.43;;
77581;SDS011;66726;52.388;9.986;2023-04-29T06:14:13;33.63;;;26.47;;
77581;SDS011;66726;52.388;9.986;2023-04-29T06:16:46;32.70;;;26.70;;
77581;SDS011;66726;52.388;9.986;2023-04-29T06:19:18;35.47;;;28.23;;
77581;SDS011;66726;52.388;9.986;2023-04-29T06:21:50;39.40;;;30.40;;
77581;SDS011;66726;52.388;9.986;2023-04-29T06:24:23;40.23;;;32.37;;
77581;SDS011;66726;52.388;9.986;2023-04-29T06:26:55;46.83;;;35.57;;
77581;SDS011;66726;52.388;9.986;2023-04-29T06:29:29;44.60;;;35.00;;
77581;SDS011;66726;52.388;9.986;2023-04-29T06:32:02;46.20;;;33.87;;
77581;SDS011;66726;52.388;9.986;2023-04-29T06:34:34;40.37;;;31.47;;
77581;SDS011;66726;52.388;9.986;2023-04-29T06:37:08;37.87;;;30.63;;
77581;SDS011;66726;52.388;9.986;2023-04-29T06:39:40;36.80;;;30.20;;
77581;SDS011;66726;52.388;9.986;2023-04-29T06:42:13;36.73;;;28.03;;
77581;SDS011;66726;52.388;9.986;2023-04-29T06:44:45;35.73;;;27.57;;
77581;SDS011;66726;52.388;9.986;2023-04-29T06:47:18;32.63;;;25.97;;
77581;SDS011;66726;52.388;9.986;2023-04-29T06:49:50;33.10;;;26.27;;
77581;SDS011;66726;52.388;9.986;2023-04-29T06:52:22;29.40;;;25.17;;
77581;SDS011;66726;52.388;9.986;2023-04-29T06:54:54;30.80;;;26.10;;
77581;SDS011;66726;52.388;9.986;2023-04-29T06:57:26;27.27;;;23.57;;
77581;SDS011;66726;52.388;9.986;2023-04-29T06:59:59;29.07;;;25.10;;
77581;SDS011;66726;52.388;9.986;2023-04-29T07:02:32;27.77;;;24.30;;
77581;SDS011;66726;52.388;9.986;2023-04-29T07:05:05;29.87;;;24.50;;
77581;SDS011;66726;52.388;9.986;2023-04-29T07:07:38;28.37;;;23.90;;
77581;SDS011;66726;52.388;9.986;2023-04-29T07:10:10;28.20;;;23.80;;
77581;SDS011;66726;52.388;9.986;2023-04-29T07:12:42;26.10;;;22.10;;
77581;SDS011;66726;52.388;9.986;2023-04-29T07:15:15;24.83;;;22.23;;
77581;SDS011;66726;52.388;9.986;2023-04-29T07:17:49;24.37;;;21.83;;
77581;SDS011;66726;52.388;9.986;2023-04-29T07:20:21;28.10;;;23.60;;
77581;SDS011;66726;52.388;9.986;2023-04-29T07:22:53;28.53;;;22.20;;
77581;SDS011;66726;52.388;9.986;2023-04-29T07:25:25;25.43;;;22.63;;
77581;SDS011;66726;52.388;9.986;2023-04-29T07:27:58;27.10;;;22.17;;
77581;SDS011;66726;52.388;9.986;2023-04-29T07:30:29;25.33;;;21.70;;
77581;SDS011;66726;52.388;9.986;2023-04-29T07:33:03;27.17;;;21.43;;
77581;SDS011;66726;52.388;9.986;2023-04-29T07:35:35;26.20;;;23.37;;
77581;SDS011;66726;52.388;9.986;2023-04-29T07:38:09;25.03;;;22.43;;
77581;SDS011;66726;52.388;9.986;2023-04-29T07:40:41;27.30;;;23.20;;
77581;SDS011;66726;52.388;9.986;2023-04-29T07:43:13;25.17;;;21.90;;
77581;SDS011;66726;52.388;9.986;2023-04-29T07:45:45;24.67;;;20.37;;
77581;SDS011;66726;52.388;9.986;2023-04-29T07:48:18;24.63;;;20.83;;
77581;SDS011;66726;52.388;9.986;2023-04-29T07:50:50;21.33;;;19.03;;
77581;SDS011;66726;52.388;9.986;2023-04-29T07:53:22;21.93;;;19.67;;
77581;SDS011;66726;52.388;9.986;2023-04-29T07:55:54;22.43;;;19.87;;
77581;SDS011;66726;52.388;9.986;2023-04-29T07:58:28;21.67;;;18.60;;
77581;SDS011;66726;52.388;9.986;2023-04-29T08:01:04;21.60;;;19.30;;
77581;SDS011;66726;52.388;9.986;2023-04-29T08:03:39;23.30;;;20.77;;
77581;SDS011;66726;52.388;9.986;2023-04-29T08:06:12;19.33;;;17.37;;
77581;SDS011;66726;52.388;9.986;2023-04-29T08:08:47;20.50;;;18.30;;
77581;SDS011;66726;52.388;9.986;2023-04-29T08:11:19;19.27;;;17.27;;
77581;SDS011;66726;52.388;9.986;2023-04-29T08:13:52;19.27;;;17.37;;
77581;SDS011;66726;52.388;9.986;2023-04-29T08:16:25;18.27;;;16.33;;
77581;SDS011;66726;52.388;9.986;2023-04-29T08:18:58;18.37;;;15.73;;
77581;SDS011;66726;52.388;9.986;2023-04-29T08:21:30;17.67;;;15.77;;
77581;SDS011;66726;52.388;9.986;2023-04-29T08:24:02;18.03;;;16.13;;
77581;SDS011;66726;52.388;9.986;2023-04-29T08:26:34;17.90;;;16.10;;
77581;SDS011;66726;52.388;9.986;2023-04-29T08:29:05;18.67;;;16.37;;
77581;SDS011;66726;52.388;9.986;2023-04-29T08:31:37;17.70;;;15.63;;
77581;SDS011;66726;52.388;9.986;2023-04-29T08:34:11;15.37;;;12.87;;
77581;SDS011;66726;52.388;9.986;2023-04-29T08:36:43;16.33;;;12.60;;
77581;SDS011;66726;52.388;9.986;2023-04-29T08:39:15;14.20;;;12.70;;
77581;SDS011;66726;52.388;9.986;2023-04-29T08:41:46;14.60;;;12.90;;
77581;SDS011;66726;52.388;9.986;2023-04-29T08:44:20;13.97;;;12.53;;
77581;SDS011;66726;52.388;9.986;2023-04-29T08:46:51;12.10;;;10.93;;
77581;SDS011;66726;52.388;9.986;2023-04-29T08:49:25;12.27;;;10.47;;
77581;SDS011;66726;52.388;9.986;2023-04-29T08:51:59;13.37;;;11.60;;
77581;SDS011;66726;52.388;9.986;2023-04-29T08:54:32;10.97;;;9.77;;
77581;SDS011;66726;52.388;9.986;2023-04-29T08:57:04;11.77;;;10.50;;
77581;SDS011;66726;52.388;9.986;2023-04-29T08:59:39;11.17;;;9.57;;
77581;SDS011;66726;52.388;9.986;2023-04-29T09:02:12;12.43;;;9.70;;
77581;SDS011;66726;52.388;9.986;2023-04-29T09:04:50;12.10;;;10.10;;
77581;SDS011;66726;52.388;9.986;2023-04-29T09:07:34;10.70;;;9.60;;
77581;SDS011;66726;52.388;9.986;2023-04-29T09:10:08;11.63;;;10.43;;
77581;SDS011;66726;52.388;9.986;2023-04-29T09:12:42;11.23;;;10.13;;
77581;SDS011;66726;52.388;9.986;2023-04-29T09:15:13;11.63;;;10.43;;
77581;SDS011;66726;52.388;9.986;2023-04-29T09:17:46;12.30;;;10.97;;
77581;SDS011;66726;52.388;9.986;2023-04-29T09:20:26;10.63;;;9.53;;
77581;SDS011;66726;52.388;9.986;2023-04-29T09:22:59;10.60;;;9.20;;
77581;SDS011;66726;52.388;9.986;2023-04-29T09:25:32;12.57;;;10.80;;
77581;SDS011;66726;52.388;9.986;2023-04-29T09:28:13;12.20;;;10.07;;
77581;SDS011;66726;52.388;9.986;2023-04-29T09:30:45;11.80;;;10.60;;
77581;SDS011;66726;52.388;9.986;2023-04-29T09:33:16;11.90;;;9.83;;
77581;SDS011;66726;52.388;9.986;2023-04-29T09:35:50;11.00;;;9.57;;
77581;SDS011;66726;52.388;9.986;2023-04-29T09:38:21;9.93;;;9.00;;
77581;SDS011;66726;52.388;9.986;2023-04-29T09:40:53;12.83;;;9.07;;
77581;SDS011;66726;52.388;9.986;2023-04-29T09:43:27;11.53;;;8.53;;
77581;SDS011;66726;52.388;9.986;2023-04-29T09:45:59;11.90;;;9.13;;
77581;SDS011;66726;52.388;9.986;2023-04-29T09:48:31;11.43;;;9.90;;
77581;SDS011;66726;52.388;9.986;2023-04-29T09:51:04;12.20;;;10.33;;
77581;SDS011;66726;52.388;9.986;2023-04-29T09:53:36;11.30;;;9.87;;
77581;SDS011;66726;52.388;9.986;2023-04-29T09:56:08;10.13;;;9.00;;
77581;SDS011;66726;52.388;9.986;2023-04-29T09:58:40;11.70;;;9.13;;
77581;SDS011;66726;52.388;9.986;2023-04-29T10:01:12;10.63;;;9.03;;
77581;SDS011;66726;52.388;9.986;2023-04-29T10:03:46;10.60;;;9.17;;
77581;SDS011;66726;52.388;9.986;2023-04-29T10:06:22;12.67;;;9.20;;
77581;SDS011;66726;52.388;9.986;2023-04-29T10:08:55;12.13;;;9.63;;
77581;SDS011;66726;52.388;9.986;2023-04-29T10:11:27;11.17;;;9.97;;
77581;SDS011;66726;52.388;9.986;2023-04-29T10:13:59;12.63;;;9.50;;
77581;SDS011;66726;52.388;9.986;2023-04-29T10:16:35;11.73;;;9.83;;
77581;SDS011;66726;52.388;9.986;2023-04-29T10:19:17;12.23;;;9.13;;
77581;SDS011;66726;52.388;9.986;2023-04-29T10:22:08;12.57;;;9.40;;
77581;SDS011;66726;52.388;9.986;2023-04-29T10:24:46;10.77;;;9.63;;
77581;SDS011;66726;52.388;9.986;2023-04-29T10:27:21;13.10;;;10.33;;
77581;SDS011;66726;52.388;9.986;2023-04-29T10:29:55;12.43;;;10.63;;
77581;SDS011;66726;52.388;9.986;2023-04-29T10:32:30;13.50;;;10.53;;
77581;SDS011;66726;52.388;9.986;2023-04-29T10:35:17;13.00;;;11.67;;
77581;SDS011;66726;52.388;9.986;2023-04-29T10:37:52;12.60;;;11.30;;
77581;SDS011;66726;52.388;9.986;2023-04-29T10:40:26;13.53;;;12.00;;
77581;SDS011;66726;52.388;9.986;2023-04-29T10:43:13;13.60;;;11.93;;
77581;SDS011;66726;52.388;9.986;2023-04-29T10:46:04;13.67;;;11.43;;
77581;SDS011;66726;52.388;9.986;2023-04-29T10:48:48;12.67;;;11.37;;
77581;SDS011;66726;52.388;9.986;2023-04-29T10:51:28;13.70;;;12.13;;
77581;SDS011;66726;52.388;9.986;2023-04-29T10:54:08;12.50;;;11.23;;
77581;SDS011;66726;52.388;9.986;2023-04-29T10:56:42;13.50;;;10.67;;
77581;SDS011;66726;52.388;9.986;2023-04-29T10:59:19;12.53;;;9.80;;
77581;SDS011;66726;52.388;9.986;2023-04-29T11:02:14;11.77;;;9.37;;
77581;SDS011;66726;52.388;9.986;2023-04-29T11:07:37;10.73;;;9.37;;
77581;SDS011;66726;52.388;9.986;2023-04-29T11:10:11;12.40;;;9.80;;
77581;SDS011;66726;52.388;9.986;2023-04-29T11:12:43;12.10;;;9.97;;
77581;SDS011;66726;52.388;9.986;2023-04-29T11:15:18;11.73;;;9.20;;
77581;SDS011;66726;52.388;9.986;2023-04-29T11:17:51;11.67;;;8.80;;
77581;SDS011;66726;52.388;9.986;2023-04-29T11:20:30;10.70;;;9.13;;
77581;SDS011;66726;52.388;9.986;2023-04-29T11:23:37;10.37;;;8.60;;
77581;SDS011;66726;52.388;9.986;2023-04-29T11:26:12;10.00;;;9.00;;
77581;SDS011;66726;52.388;9.986;2023-04-29T11:28:45;9.47;;;8.43;;
77581;SDS011;66726;52.388;9.986;2023-04-29T11:31:26;10.70;;;8.90;;
77581;SDS011;66726;52.388;9.986;2023-04-29T11:33:59;11.07;;;7.90;;
77581;SDS011;66726;52.388;9.986;2023-04-29T11:36:33;9.13;;;8.20;;
77581;SDS011;66726;52.388;9.986;2023-04-29T11:39:05;9.63;;;7.70;;
77581;SDS011;66726;52.388;9.986;2023-04-29T11:41:37;10.50;;;7.13;;
77581;SDS011;66726;52.388;9.986;2023-04-29T11:44:09;10.97;;;7.63;;
77581;SDS011;66726;52.388;9.986;2023-04-29T11:46:49;10.43;;;8.23;;
77581;SDS011;66726;52.388;9.986;2023-04-29T11:49:28;9.70;;;8.30;;
77581;SDS011;66726;52.388;9.986;2023-04-29T11:52:02;8.90;;;8.00;;
77581;SDS011;66726;52.388;9.986;2023-04-29T11:54:36;10.63;;;7.67;;
77581;SDS011;66726;52.388;9.986;2023-04-29T11:57:09;10.93;;;7.33;;
77581;SDS011;66726;52.388;9.986;2023-04-29T11:59:41;8.43;;;7.47;;
77581;SDS011;66726;52.388;9.986;2023-04-29T12:02:15;10.90;;;7.80;;
77581;SDS011;66726;52.388;9.986;2023-04-29T12:04:55;9.60;;;8.43;;
77581;SDS011;66726;52.388;9.986;2023-04-29T12:07:28;12.50;;;8.47;;
77581;SDS011;66726;52.388;9.986;2023-04-29T12:09:59;9.97;;;8.13;;
77581;SDS011;66726;52.388;9.986;2023-04-29T12:12:34;11.40;;;9.10;;
77581;SDS011;66726;52.388;9.986;2023-04-29T12:15:09;10.17;;;8.63;;
77581;SDS011;66726;52.388;9.986;2023-04-29T12:17:43;9.20;;;7.10;;
77581;SDS011;66726;52.388;9.986;2023-04-29T12:20:15;9.30;;;7.43;;
77581;SDS011;66726;52.388;9.986;2023-04-29T12:22:47;9.40;;;7.87;;
77581;SDS011;66726;52.388;9.986;2023-04-29T12:25:23;11.33;;;8.53;;
77581;SDS011;66726;52.388;9.986;2023-04-29T12:27:58;8.83;;;7.93;;
77581;SDS011;66726;52.388;9.986;2023-04-29T12:30:33;10.27;;;7.63;;
77581;SDS011;66726;52.388;9.986;2023-04-29T12:33:08;8.30;;;7.40;;
77581;SDS011;66726;52.388;9.986;2023-04-29T12:35:44;9.67;;;7.63;;
77581;SDS011;66726;52.388;9.986;2023-04-29T12:38:23;8.20;;;7.40;;
77581;SDS011;66726;52.388;9.986;2023-04-29T12:40:57;12.83;;;7.73;;
77581;SDS011;66726;52.388;9.986;2023-04-29T12:43:31;8.57;;;7.67;;
77581;SDS011;66726;52.388;9.986;2023-04-29T12:46:03;8.90;;;8.00;;
77581;SDS011;66726;52.388;9.986;2023-04-29T12:48:39;9.70;;;7.77;;
77581;SDS011;66726;52.388;9.986;2023-04-29T12:51:13;10.30;;;8.07;;
77581;SDS011;66726;52.388;9.986;2023-04-29T12:53:45;7.97;;;7.17;;
77581;SDS011;66726;52.388;9.986;2023-04-29T12:56:17;7.87;;;7.07;;
77581;SDS011;66726;52.388;9.986;2023-04-29T12:58:48;12.90;;;10.80;;
77581;SDS011;66726;52.388;9.986;2023-04-29T13:01:20;9.60;;;7.67;;
77581;SDS011;66726;52.388;9.986;2023-04-29T13:03:54;10.50;;;7.50;;
77581;SDS011;66726;52.388;9.986;2023-04-29T13:06:25;9.50;;;7.07;;
77581;SDS011;66726;52.388;9.986;2023-04-29T13:08:58;8.87;;;6.83;;
77581;SDS011;66726;52.388;9.986;2023-04-29T13:11:31;8.50;;;6.90;;
77581;SDS011;66726;52.388;9.986;2023-04-29T13:14:02;7.20;;;6.50;;
77581;SDS011;66726;52.388;9.986;2023-04-29T13:16:34;8.33;;;6.70;;
77581;SDS011;66726;52.388;9.986;2023-04-29T13:19:07;8.83;;;6.23;;
77581;SDS011;66726;52.388;9.986;2023-04-29T13:21:59;7.37;;;6.57;;
77581;SDS011;66726;52.388;9.986;2023-04-29T13:24:33;7.07;;;6.37;;
77581;SDS011;66726;52.388;9.986;2023-04-29T13:27:06;9.80;;;6.40;;
77581;SDS011;66726;52.388;9.986;2023-04-29T13:29:38;6.63;;;5.93;;
77581;SDS011;66726;52.388;9.986;2023-04-29T13:32:10;8.13;;;5.87;;
77581;SDS011;66726;52.388;9.986;2023-04-29T13:34:45;8.47;;;5.80;;
77581;SDS011;66726;52.388;9.986;2023-04-29T13:37:19;7.17;;;5.97;;
77581;SDS011;66726;52.388;9.986;2023-04-29T13:39:51;8.57;;;6.20;;
77581;SDS011;66726;52.388;9.986;2023-04-29T13:42:23;14.13;;;6.00;;
77581;SDS011;66726;52.388;9.986;2023-04-29T13:44:54;10.17;;;5.33;;
77581;SDS011;66726;52.388;9.986;2023-04-29T13:47:29;7.67;;;5.80;;
77581;SDS011;66726;52.388;9.986;2023-04-29T13:50:22;8.33;;;5.53;;
77581;SDS011;66726;52.388;9.986;2023-04-29T13:53:16;6.40;;;5.70;;
77581;SDS011;66726;52.388;9.986;2023-04-29T13:55:52;8.97;;;5.60;;
77581;SDS011;66726;52.388;9.986;2023-04-29T13:58:30;8.27;;;6.67;;
77581;SDS011;66726;52.388;9.986;2023-04-29T14:01:06;5.70;;;5.10;;
77581;SDS011;66726;52.388;9.986;2023-04-29T14:03:59;8.30;;;5.93;;
77581;SDS011;66726;52.388;9.986;2023-04-29T14:06:32;6.17;;;5.27;;
77581;SDS011;66726;52.388;9.986;2023-04-29T14:09:05;7.03;;;5.20;;
77581;SDS011;66726;52.388;9.986;2023-04-29T14:11:37;7.37;;;5.20;;
77581;SDS011;66726;52.388;9.986;2023-04-29T14:14:09;8.17;;;5.70;;
77581;SDS011;66726;52.388;9.986;2023-04-29T14:16:41;6.23;;;5.63;;
77581;SDS011;66726;52.388;9.986;2023-04-29T14:19:13;6.47;;;5.37;;
77581;SDS011;66726;52.388;9.986;2023-04-29T14:21:47;7.80;;;5.60;;
77581;SDS011;66726;52.388;9.986;2023-04-29T14:24:19;7.17;;;5.23;;
77581;SDS011;66726;52.388;9.986;2023-04-29T14:26:50;5.43;;;4.93;;
77581;SDS011;66726;52.388;9.986;2023-04-29T14:29:23;6.83;;;5.67;;
77581;SDS011;66726;52.388;9.986;2023-04-29T14:31:55;9.37;;;5.83;;
77581;SDS011;66726;52.388;9.986;2023-04-29T14:34:27;6.53;;;5.83;;
77581;SDS011;66726;52.388;9.986;2023-04-29T14:37:00;10.63;;;7.50;;
77581;SDS011;66726;52.388;9.986;2023-04-29T14:39:33;8.27;;;6.13;;
77581;SDS011;66726;52.388;9.986;2023-04-29T14:42:05;7.93;;;6.23;;
77581;SDS011;66726;52.388;9.986;2023-04-29T14:44:37;7.77;;;6.07;;
77581;SDS011;66726;52.388;9.986;2023-04-29T14:47:09;7.50;;;6.10;;
77581;SDS011;66726;52.388;9.986;2023-04-29T14:49:41;8.20;;;6.00;;
77581;SDS011;66726;52.388;9.986;2023-04-29T14:52:14;7.13;;;6.33;;
77581;SDS011;66726;52.388;9.986;2023-04-29T14:54:48;6.87;;;5.43;;
77581;SDS011;66726;52.388;9.986;2023-04-29T14:57:20;6.80;;;6.10;;
77581;SDS011;66726;52.388;9.986;2023-04-29T14:59:52;6.83;;;5.57;;
77581;SDS011;66726;52.388;9.986;2023-04-29T15:02:24;7.57;;;5.80;;
77581;SDS011;66726;52.388;9.986;2023-04-29T15:04:56;7.53;;;5.97;;
77581;SDS011;66726;52.388;9.986;2023-04-29T15:07:30;7.37;;;5.47;;
77581;SDS011;66726;52.388;9.986;2023-04-29T15:10:03;6.80;;;5.67;;